Time;durP1;ratioP1;P1;durP2;ratioP2;P2;SDS_P1;SDS_P2;PMS_P1;PMS_P2;Temp;Humidity;BMP_temperature;BMP_pressure;BME280_temperature;BME280_humidity;BME280_pressure;Samples;Min_cycle;Max_cycle;Signal;HPM_P1;HPM_P2
2021/07/23 00:00:22;;;;;;;12.93;8.27;;;16.00;99.90;;;;;;5021745;28;20034;-76
2021/07/23 00:02:48;;;;;;;13.30;8.77;;;15.90;99.90;;;;;;5006028;28;20515;-77
2021/07/23 00:05:13;;;;;;;13.30;8.07;;;15.80;99.90;;;;;;5004617;28;20035;-77
2021/07/23 00:07:39;;;;;;;15.65;8.63;;;15.80;99.90;;;;;;5004821;28;20073;-77
2021/07/23 00:10:05;;;;;;;14.75;8.75;;;15.80;99.90;;;;;;5004029;28;20029;-77
2021/07/23 00:12:31;;;;;;;14.15;8.43;;;15.70;99.90;;;;;;5007620;28;20044;-77
2021/07/23 00:14:56;;;;;;;14.82;8.65;;;15.70;99.90;;;;;;4986066;28;20033;-77
2021/07/23 00:17:22;;;;;;;12.95;7.97;;;15.70;99.90;;;;;;5009128;28;20033;-77
2021/07/23 00:19:48;;;;;;;14.38;8.80;;;15.60;99.90;;;;;;5007784;28;20045;-77
2021/07/23 00:22:13;;;;;;;12.88;8.32;;;15.60;99.90;;;;;;5005443;28;20034;-77
2021/07/23 00:24:39;;;;;;;16.55;8.73;;;15.60;99.90;;;;;;5005824;28;20030;-78
2021/07/23 00:27:05;;;;;;;13.02;7.75;;;15.60;99.90;;;;;;4988795;28;20477;-76
2021/07/23 00:29:31;;;;;;;15.48;8.88;;;15.60;99.90;;;;;;5005883;28;20050;-78
2021/07/23 00:31:56;;;;;;;15.45;9.48;;;15.60;99.90;;;;;;5006912;28;20125;-78
2021/07/23 00:34:22;;;;;;;14.60;8.52;;;15.50;99.90;;;;;;5005149;28;20041;-78
2021/07/23 00:36:48;;;;;;;13.70;7.95;;;15.50;99.90;;;;;;5007216;28;20070;-78
2021/07/23 00:39:14;;;;;;;15.35;8.32;;;15.50;99.90;;;;;;5006852;28;20037;-78
2021/07/23 00:41:39;;;;;;;13.02;8.20;;;15.50;99.90;;;;;;5002348;28;20025;-77
2021/07/23 00:44:05;;;;;;;13.65;8.27;;;15.40;99.90;;;;;;5004448;23;20037;-86
2021/07/23 00:46:35;;;;;;;14.48;8.30;;;15.40;99.90;;;;;;4982990;28;20037;-88
2021/07/23 00:49:04;;;;;;;15.10;8.13;;;15.40;99.90;;;;;;4983272;28;20040;-86
2021/07/23 00:51:32;;;;;;;15.75;9.02;;;15.30;99.90;;;;;;5039285;28;20033;-88
2021/07/23 00:53:58;;;;;;;15.65;8.88;;;15.30;99.90;;;;;;5051406;28;20017;-86
2021/07/23 00:56:26;;;;;;;17.10;8.65;;;15.20;99.90;;;;;;5018174;28;20399;-86
2021/07/23 00:58:55;;;;;;;16.98;9.80;;;15.20;99.90;;;;;;5035004;28;20052;-87
2021/07/23 01:01:22;;;;;;;17.73;9.32;;;15.20;99.90;;;;;;5034585;28;20710;-86
2021/07/23 01:03:48;;;;;;;14.65;9.50;;;15.20;99.90;;;;;;5034515;28;20035;-85
2021/07/23 01:06:14;;;;;;;15.23;8.32;;;15.20;99.90;;;;;;5034772;28;20033;-86
2021/07/23 01:08:42;;;;;;;16.17;9.18;;;15.20;99.90;;;;;;5034743;28;20039;-86
2021/07/23 01:11:08;;;;;;;15.88;9.10;;;15.20;99.90;;;;;;5018356;28;20056;-86
2021/07/23 01:13:45;;;;;;;15.48;9.00;;;15.10;99.90;;;;;;5036069;28;20039;-86
2021/07/23 01:16:12;;;;;;;16.58;9.52;;;15.10;99.90;;;;;;5034611;28;20037;-86
2021/07/23 01:18:39;;;;;;;14.75;8.95;;;15.10;99.90;;;;;;5034520;28;20578;-88
2021/07/23 01:21:05;;;;;;;15.68;8.00;;;15.00;99.90;;;;;;5034366;28;20033;-87
2021/07/23 01:23:34;;;;;;;17.65;9.77;;;15.00;99.90;;;;;;5051157;28;20140;-86
2021/07/23 01:26:05;;;;;;;14.88;9.00;;;14.90;99.90;;;;;;5034855;28;20025;-86
2021/07/23 01:28:34;;;;;;;17.80;9.50;;;14.90;99.90;;;;;;5034709;28;20041;-86
2021/07/23 01:31:04;;;;;;;18.08;9.70;;;14.90;99.90;;;;;;5035120;28;20555;-86
2021/07/23 01:33:35;;;;;;;17.27;9.75;;;14.90;99.90;;;;;;5019186;28;20040;-87
2021/07/23 01:36:02;;;;;;;18.00;9.68;;;14.80;99.90;;;;;;5050958;28;20037;-87
2021/07/23 01:38:33;;;;;;;15.93;10.55;;;14.80;99.90;;;;;;5050786;28;20029;-86
2021/07/23 01:40:59;;;;;;;16.67;9.50;;;14.70;99.90;;;;;;5034143;28;20123;-86
2021/07/23 01:43:26;;;;;;;14.68;8.80;;;14.70;99.90;;;;;;5017867;28;20110;-86
2021/07/23 01:45:56;;;;;;;16.55;9.02;;;14.60;99.90;;;;;;5050898;28;20036;-86
2021/07/23 01:49:00;;;;;;;15.60;9.13;;;14.60;99.90;;;;;;5039752;28;20419;-86
2021/07/23 01:51:32;;;;;;;18.42;9.63;;;14.50;99.90;;;;;;5020406;28;20041;-86
2021/07/23 01:53:58;;;;;;;16.10;9.63;;;14.60;99.90;;;;;;5010989;28;20026;-87
2021/07/23 01:56:27;;;;;;;18.13;9.88;;;14.50;99.90;;;;;;4995007;28;20026;-85
2021/07/23 01:58:56;;;;;;;16.85;9.90;;;14.50;99.90;;;;;;4995255;28;20508;-86
2021/07/23 02:01:24;;;;;;;17.63;9.90;;;14.50;99.90;;;;;;4994811;28;20034;-87
2021/07/23 02:04:04;;;;;;;17.20;10.48;;;14.50;99.90;;;;;;5011213;28;20032;-86
2021/07/23 02:06:31;;;;;;;18.25;9.45;;;14.40;99.90;;;;;;5010734;28;20034;-86
2021/07/23 02:08:57;;;;;;;17.10;9.35;;;14.40;99.90;;;;;;5010824;28;20049;-86
2021/07/23 02:11:24;;;;;;;16.73;9.13;;;14.40;99.90;;;;;;5010810;28;20025;-86
2021/07/23 02:13:50;;;;;;;15.38;8.88;;;14.40;99.90;;;;;;5010822;28;20060;-87
2021/07/23 02:16:16;;;;;;;18.58;9.32;;;14.30;99.90;;;;;;5010670;28;20030;-87
2021/07/23 02:18:42;;;;;;;16.77;9.75;;;14.30;99.90;;;;;;4994465;28;20038;-86
2021/07/23 02:21:25;;;;;;;18.10;10.20;;;14.30;99.90;;;;;;4999131;28;20040;-85
2021/07/23 02:23:50;;;;;;;17.58;10.02;;;14.20;99.90;;;;;;5014964;28;20030;-85
2021/07/23 02:26:18;;;;;;;19.48;10.13;;;14.20;99.90;;;;;;5014428;28;20089;-85
2021/07/23 02:28:46;;;;;;;18.38;10.15;;;14.20;99.90;;;;;;5014697;28;20034;-86
2021/07/23 02:31:13;;;;;;;16.58;9.20;;;14.20;99.90;;;;;;4998162;28;20033;-85
2021/07/23 02:33:53;;;;;;;19.15;10.05;;;14.10;99.90;;;;;;5000227;28;20454;-86
2021/07/23 02:36:30;;;;;;;17.50;9.98;;;14.10;99.90;;;;;;5028898;28;20123;-86
2021/07/23 02:38:56;;;;;;;17.13;9.60;;;14.10;99.90;;;;;;5021082;28;20491;-85
2021/07/23 02:41:23;;;;;;;18.30;10.45;;;14.10;99.90;;;;;;5021031;28;20552;-85
2021/07/23 02:43:52;;;;;;;17.80;9.82;;;14.00;99.90;;;;;;5037689;28;20111;-86
2021/07/23 02:46:19;;;;;;;18.95;10.05;;;14.00;99.90;;;;;;5021075;28;20510;-85
2021/07/23 02:48:46;;;;;;;20.30;10.45;;;14.00;99.90;;;;;;5037405;28;20040;-88
2021/07/23 02:51:12;;;;;;;19.20;11.23;;;14.00;99.90;;;;;;5020845;28;20033;-86
2021/07/23 02:53:40;;;;;;;17.08;9.88;;;14.00;99.90;;;;;;5021524;28;20102;-85
2021/07/23 02:56:09;;;;;;;18.33;10.02;;;14.00;99.90;;;;;;5037001;28;20048;-86
2021/07/23 02:58:42;;;;;;;18.95;9.48;;;13.90;99.90;;;;;;5020533;28;20043;-86
2021/07/23 03:01:09;;;;;;;15.43;9.50;;;13.90;99.90;;;;;;5053356;28;20048;-88
2021/07/23 03:03:35;;;;;;;16.15;9.73;;;13.90;99.90;;;;;;5020725;28;20117;-86
2021/07/23 03:06:02;;;;;;;17.52;10.07;;;13.90;99.90;;;;;;5037097;28;20029;-85
2021/07/23 03:08:30;;;;;;;17.98;9.13;;;13.80;99.90;;;;;;5037039;28;20036;-86
2021/07/23 03:10:57;;;;;;;16.67;9.85;;;13.80;99.90;;;;;;5053330;28;20025;-86
2021/07/23 03:13:33;;;;;;;18.10;10.85;;;13.80;99.90;;;;;;5053329;28;20079;-88
2021/07/23 03:16:00;;;;;;;19.15;10.57;;;13.80;99.90;;;;;;5020619;28;20041;-86
2021/07/23 03:18:26;;;;;;;15.52;9.43;;;13.80;99.90;;;;;;5019411;28;20112;-85
2021/07/23 03:20:52;;;;;;;17.92;10.55;;;13.70;99.90;;;;;;5016637;28;20028;-85
2021/07/23 03:23:19;;;;;;;20.58;9.80;;;13.60;99.90;;;;;;4984746;28;20068;-89
2021/07/23 03:25:52;;;;;;;19.13;10.10;;;13.60;99.90;;;;;;5018094;28;20026;-85
2021/07/23 03:28:31;;;;;;;18.73;10.63;;;13.60;99.90;;;;;;5003950;28;20032;-86
2021/07/23 03:31:14;;;;;;;18.20;9.93;;;13.50;99.90;;;;;;5017990;28;20080;-86
2021/07/23 03:33:42;;;;;;;18.98;10.88;;;13.50;99.90;;;;;;5016111;28;20037;-85
2021/07/23 03:36:09;;;;;;;15.98;9.60;;;13.50;99.90;;;;;;4984258;28;20697;-86
2021/07/23 03:38:36;;;;;;;21.10;10.20;;;13.50;99.90;;;;;;5016961;28;20036;-86
2021/07/23 03:41:02;;;;;;;17.80;9.82;;;13.50;99.90;;;;;;4983790;28;20044;-85
2021/07/23 03:43:29;;;;;;;20.67;10.85;;;13.50;99.90;;;;;;5016046;28;20083;-85
2021/07/23 03:46:02;;;;;;;17.60;9.35;;;13.50;99.90;;;;;;4987090;28;20037;-86
2021/07/23 03:48:33;;;;;;;16.35;8.70;;;13.50;99.90;;;;;;4986113;28;20099;-85
2021/07/23 03:51:01;;;;;;;16.70;9.10;;;13.50;99.90;;;;;;5000910;28;20416;-85
2021/07/23 03:53:27;;;;;;;15.57;9.13;;;13.50;99.90;;;;;;4983674;28;20032;-85
2021/07/23 03:56:10;;;;;;;16.10;8.20;;;13.50;99.90;;;;;;4986017;28;20034;-85
2021/07/23 03:58:41;;;;;;;14.32;8.65;;;13.50;99.90;;;;;;5001121;28;20033;-85
2021/07/23 04:01:09;;;;;;;15.52;8.85;;;13.50;99.90;;;;;;5016010;28;20116;-86
2021/07/23 04:03:38;;;;;;;15.82;9.60;;;13.50;99.90;;;;;;4984678;28;20021;-85
2021/07/23 04:06:04;;;;;;;16.83;9.45;;;13.50;99.90;;;;;;4999744;28;20112;-85
2021/07/23 04:08:30;;;;;;;17.38;9.50;;;13.50;99.90;;;;;;4983568;28;20121;-85
2021/07/23 04:10:56;;;;;;;17.58;10.02;;;13.50;99.90;;;;;;5015574;28;20031;-85
2021/07/23 04:13:26;;;;;;;17.73;9.70;;;13.50;99.90;;;;;;5000362;28;20538;-85
2021/07/23 04:15:52;;;;;;;16.27;10.02;;;13.60;99.90;;;;;;5015773;28;20427;-85
2021/07/23 04:18:18;;;;;;;15.25;9.63;;;13.60;99.90;;;;;;5015751;28;20072;-86
2021/07/23 04:21:04;;;;;;;16.77;9.68;;;13.60;99.90;;;;;;5017608;28;20075;-85
2021/07/23 04:23:30;;;;;;;15.77;9.77;;;13.60;99.90;;;;;;5015574;28;20025;-86
2021/07/23 04:25:56;;;;;;;18.08;9.25;;;13.60;99.90;;;;;;5015638;28;20083;-85
2021/07/23 04:28:25;;;;;;;14.60;8.38;;;13.60;99.90;;;;;;5015791;28;20491;-85
2021/07/23 04:30:51;;;;;;;15.73;9.13;;;13.60;99.90;;;;;;5015525;28;20040;-85
2021/07/23 04:33:19;;;;;;;18.05;9.68;;;13.70;99.90;;;;;;5015852;28;20117;-85
2021/07/23 04:36:03;;;;;;;18.17;10.07;;;13.70;99.90;;;;;;5018214;28;20095;-85
2021/07/23 04:38:30;;;;;;;16.02;9.20;;;13.80;99.90;;;;;;5015448;28;20034;-86
2021/07/23 04:40:58;;;;;;;16.30;9.50;;;13.80;99.90;;;;;;5015567;28;20064;-86
2021/07/23 04:43:38;;;;;;;17.75;10.13;;;13.80;99.90;;;;;;4985213;28;20121;-85
2021/07/23 04:46:05;;;;;;;17.60;10.07;;;13.90;99.90;;;;;;5016367;28;20116;-85
2021/07/23 04:48:32;;;;;;;15.20;9.55;;;13.90;99.90;;;;;;5015214;28;20032;-85
2021/07/23 04:51:09;;;;;;;19.95;10.52;;;14.00;99.90;;;;;;4987247;28;20036;-85
2021/07/23 04:53:58;;;;;;;18.52;9.88;;;14.00;99.90;;;;;;4973162;28;20038;-87
2021/07/23 04:56:45;;;;;;;17.73;9.98;;;14.10;99.90;;;;;;5003929;28;20092;-85
2021/07/23 04:59:12;;;;;;;14.32;9.00;;;14.10;99.90;;;;;;4983931;28;20048;-86
2021/07/23 05:01:38;;;;;;;18.52;10.35;;;14.20;99.90;;;;;;5014836;28;20029;-88
2021/07/23 05:04:04;;;;;;;17.20;10.43;;;14.30;99.90;;;;;;5014898;28;20037;-85
2021/07/23 05:06:30;;;;;;;22.08;13.18;;;14.30;99.90;;;;;;5014795;28;20033;-85
2021/07/23 05:08:56;;;;;;;23.23;12.35;;;14.40;99.90;;;;;;4998396;28;20033;-85
2021/07/23 05:11:22;;;;;;;21.02;11.15;;;14.40;99.90;;;;;;4981961;28;20038;-85
2021/07/23 05:13:53;;;;;;;17.42;9.95;;;14.40;99.90;;;;;;5015526;28;20087;-85
2021/07/23 05:16:19;;;;;;;17.08;9.65;;;14.50;99.90;;;;;;4982117;28;20038;-86
2021/07/23 05:18:45;;;;;;;17.23;10.10;;;14.60;99.90;;;;;;4982140;28;20041;-87
2021/07/23 05:21:11;;;;;;;16.85;10.45;;;14.70;99.90;;;;;;4981784;28;20041;-86
2021/07/23 05:23:41;;;;;;;17.70;10.13;;;14.80;99.90;;;;;;5014567;28;20034;-88
2021/07/23 05:26:07;;;;;;;19.77;9.77;;;14.90;99.90;;;;;;5014747;28;20026;-85
2021/07/23 05:28:33;;;;;;;16.33;9.98;;;15.00;99.90;;;;;;5014390;28;20031;-88
2021/07/23 05:31:02;;;;;;;16.40;9.13;;;15.10;99.90;;;;;;5014717;28;20037;-85
2021/07/23 05:33:27;;;;;;;16.83;9.68;;;15.10;99.90;;;;;;4998752;28;20033;-87
2021/07/23 05:35:53;;;;;;;17.05;10.10;;;15.30;99.90;;;;;;5014265;28;20044;-85
2021/07/23 05:38:19;;;;;;;18.65;9.93;;;15.40;99.90;;;;;;5014921;28;20121;-86
2021/07/23 05:40:48;;;;;;;17.83;10.18;;;15.60;99.90;;;;;;5014004;28;20554;-87
2021/07/23 05:43:14;;;;;;;17.90;9.57;;;15.90;99.90;;;;;;5011025;28;20029;-88
2021/07/23 05:45:40;;;;;;;17.40;10.15;;;16.20;99.90;;;;;;5010570;28;20037;-89
2021/07/23 05:48:07;;;;;;;16.83;9.45;;;16.50;99.90;;;;;;5036678;28;20026;-87
2021/07/23 05:50:33;;;;;;;17.67;9.13;;;16.90;99.90;;;;;;5010626;28;20049;-87
2021/07/23 05:52:59;;;;;;;15.52;9.43;;;17.20;99.90;;;;;;5017146;28;20468;-87
2021/07/23 05:55:25;;;;;;;15.75;9.50;;;17.50;99.90;;;;;;5044669;28;20573;-87
2021/07/23 05:57:56;;;;;;;15.77;9.48;;;17.80;99.90;;;;;;5020695;28;20070;-88
2021/07/23 06:00:22;;;;;;;14.80;8.93;;;18.10;99.90;;;;;;5019891;28;20040;-89
2021/07/23 06:02:48;;;;;;;15.50;8.82;;;18.40;99.90;;;;;;5029776;28;20502;-88
2021/07/23 06:05:13;;;;;;;13.82;8.90;;;18.70;99.90;;;;;;5017038;28;20041;-87
2021/07/23 06:07:39;;;;;;;14.23;9.35;;;19.00;99.90;;;;;;5036329;28;20071;-87
2021/07/23 06:10:05;;;;;;;14.50;8.68;;;19.30;99.90;;;;;;5002480;28;20392;-87
2021/07/23 06:12:32;;;;;;;16.35;9.52;;;19.60;99.90;;;;;;5014295;28;20110;-88
2021/07/23 06:14:57;;;;;;;16.77;10.15;;;19.90;99.90;;;;;;5015379;28;20025;-87
2021/07/23 06:17:23;;;;;;;15.90;8.73;;;20.20;99.90;;;;;;5031297;28;20411;-87
2021/07/23 06:19:49;;;;;;;17.30;9.63;;;20.30;99.90;;;;;;4983807;28;20029;-89
2021/07/23 06:22:17;;;;;;;13.23;9.13;;;20.60;99.90;;;;;;5021854;28;20487;-87
2021/07/23 06:24:44;;;;;;;11.75;7.63;;;20.90;99.90;;;;;;5033658;28;20045;-87
2021/07/23 06:27:10;;;;;;;12.38;8.40;;;21.20;99.90;;;;;;5009744;28;20026;-89
2021/07/23 06:29:36;;;;;;;14.52;9.07;;;21.50;99.90;;;;;;5001469;28;20081;-87
2021/07/23 06:32:02;;;;;;;13.02;8.25;;;21.90;99.90;;;;;;5020653;28;20040;-88
2021/07/23 06:34:27;;;;;;;14.52;8.95;;;22.40;99.90;;;;;;5018774;28;20029;-88
2021/07/23 06:36:53;;;;;;;15.32;9.35;;;22.80;99.90;;;;;;5034146;28;20029;-87
2021/07/23 06:39:19;;;;;;;13.60;9.43;;;23.10;99.90;;;;;;5021738;28;20110;-89
2021/07/23 06:41:45;;;;;;;12.20;8.57;;;23.50;99.90;;;;;;5009631;28;20034;-88
2021/07/23 06:44:13;;;;;;;14.18;9.45;;;23.90;99.90;;;;;;5015053;28;20033;-87
2021/07/23 06:46:39;;;;;;;12.88;8.88;;;24.20;99.90;;;;;;5017311;28;20029;-88
2021/07/23 06:49:05;;;;;;;11.90;8.43;;;24.30;99.90;;;;;;5019102;28;20036;-88
2021/07/23 06:51:30;;;;;;;15.38;9.48;;;24.20;98.80;;;;;;5012541;28;20682;-86
2021/07/23 06:53:59;;;;;;;11.15;7.88;;;24.00;96.20;;;;;;5018310;28;20037;-89
2021/07/23 06:56:24;;;;;;;13.38;9.27;;;24.00;99.30;;;;;;5025330;28;20029;-91
2021/07/23 06:58:50;;;;;;;20.60;9.32;;;24.20;98.20;;;;;;5014562;28;20036;-89
2021/07/23 07:01:16;;;;;;;11.02;8.55;;;23.90;98.30;;;;;;5035214;28;20083;-87
2021/07/23 07:03:42;;;;;;;14.63;10.05;;;23.80;98.10;;;;;;5019035;28;20030;-88
2021/07/23 07:06:08;;;;;;;14.70;10.45;;;23.90;97.90;;;;;;4981189;28;20040;-87
2021/07/23 07:08:34;;;;;;;15.02;9.55;;;24.00;98.20;;;;;;4998658;28;20500;-87
2021/07/23 07:11:01;;;;;;;13.32;8.70;;;24.20;99.90;;;;;;5020930;28;20040;-87
2021/07/23 07:13:26;;;;;;;12.70;8.98;;;24.60;98.80;;;;;;5032820;28;20091;-87
2021/07/23 07:15:52;;;;;;;15.27;10.23;;;25.20;96.60;;;;;;5009613;28;20034;-88
2021/07/23 07:18:18;;;;;;;13.38;8.98;;;25.10;92.80;;;;;;5025791;28;20101;-88
2021/07/23 07:20:44;;;;;;;11.73;8.35;;;25.30;94.70;;;;;;5026842;28;20038;-86
2021/07/23 07:23:10;;;;;;;11.15;7.82;;;25.60;93.10;;;;;;5016465;28;20061;-86
2021/07/23 07:25:37;;;;;;;12.15;8.25;;;25.80;89.50;;;;;;5014121;28;20821;-87
2021/07/23 07:28:03;;;;;;;12.55;8.10;;;25.80;91.10;;;;;;5014643;28;20044;-86
2021/07/23 07:30:29;;;;;;;10.70;7.60;;;25.90;90.20;;;;;;5015098;28;20046;-87
2021/07/23 07:32:55;;;;;;;9.18;6.80;;;25.90;87.40;;;;;;5016333;28;20037;-88
2021/07/23 07:35:21;;;;;;;10.38;7.45;;;26.20;90.30;;;;;;5017437;28;20088;-86
2021/07/23 07:37:46;;;;;;;11.80;7.57;;;26.30;85.70;;;;;;5016004;28;20452;-87
2021/07/23 07:40:13;;;;;;;11.80;8.30;;;25.90;85.10;;;;;;5016647;28;20127;-87
2021/07/23 07:42:39;;;;;;;11.45;7.60;;;25.50;82.70;;;;;;4999569;28;20040;-86
2021/07/23 07:45:05;;;;;;;12.50;8.05;;;25.70;86.40;;;;;;4983049;28;20500;-87
2021/07/23 07:47:31;;;;;;;13.30;8.93;;;25.90;85.20;;;;;;5019831;28;20033;-87
2021/07/23 07:49:57;;;;;;;12.32;8.00;;;25.80;84.40;;;;;;5016246;28;20381;-86
2021/07/23 07:52:23;;;;;;;11.43;7.45;;;25.40;81.20;;;;;;5006034;28;20048;-88
2021/07/23 07:54:49;;;;;;;9.50;6.80;;;25.30;82.00;;;;;;5015948;28;20112;-86
2021/07/23 07:57:15;;;;;;;12.02;8.07;;;25.10;84.20;;;;;;5021051;28;20033;-87
2021/07/23 07:59:41;;;;;;;10.50;7.85;;;25.10;88.80;;;;;;5034509;28;20052;-88
2021/07/23 08:02:11;;;;;;;9.95;7.43;;;25.20;88.10;;;;;;5017260;28;20491;-86
2021/07/23 08:04:38;;;;;;;11.80;8.48;;;25.30;89.20;;;;;;5019569;28;20029;-86
2021/07/23 08:07:07;;;;;;;13.00;8.32;;;25.30;85.10;;;;;;5013963;28;20025;-87
2021/07/23 08:09:56;;;;;;;12.57;7.65;;;25.30;82.60;;;;;;5012547;28;20419;-87
2021/07/23 08:12:22;;;;;;;10.15;7.28;;;25.10;84.10;;;;;;5029748;28;20048;-87
2021/07/23 08:14:48;;;;;;;12.48;7.75;;;25.10;90.50;;;;;;5024306;28;20487;-87
2021/07/23 08:17:14;;;;;;;10.52;7.25;;;25.20;85.00;;;;;;5037540;28;20064;-88
2021/07/23 08:19:40;;;;;;;9.30;7.53;;;25.40;86.40;;;;;;5014841;28;20033;-89
2021/07/23 08:22:10;;;;;;;9.43;6.60;;;25.70;87.00;;;;;;5015583;28;20026;-88
2021/07/23 08:24:36;;;;;;;11.70;8.60;;;26.10;83.10;;;;;;5015714;28;20051;-88
2021/07/23 08:27:03;;;;;;;10.73;7.35;;;26.20;79.50;;;;;;5015492;28;20053;-88
2021/07/23 08:29:29;;;;;;;10.85;7.18;;;26.40;78.40;;;;;;5015905;28;20040;-88
2021/07/23 08:31:54;;;;;;;11.63;7.25;;;26.60;77.50;;;;;;5015717;28;20034;-89
2021/07/23 08:34:20;;;;;;;8.05;6.50;;;26.50;78.80;;;;;;5015663;28;20029;-88
2021/07/23 08:36:46;;;;;;;8.27;6.70;;;26.80;80.40;;;;;;5015608;28;20045;-88
2021/07/23 08:39:12;;;;;;;10.63;7.15;;;27.10;79.80;;;;;;5015925;28;20108;-91
2021/07/23 08:41:37;;;;;;;10.32;7.05;;;27.50;77.40;;;;;;5015827;28;20132;-88
2021/07/23 08:44:04;;;;;;;9.88;7.47;;;27.80;78.20;;;;;;5015706;28;20030;-89
2021/07/23 08:46:31;;;;;;;7.90;6.70;;;28.00;78.30;;;;;;5031897;28;20034;-90
2021/07/23 08:48:58;;;;;;;10.98;7.20;;;28.30;76.00;;;;;;5015830;28;20487;-89
2021/07/23 08:51:24;;;;;;;9.00;6.50;;;28.60;69.00;;;;;;5032118;28;20087;-91
2021/07/23 08:53:50;;;;;;;12.27;7.70;;;28.40;67.10;;;;;;5031963;28;20033;-89
2021/07/23 08:56:16;;;;;;;9.18;6.85;;;28.00;71.40;;;;;;5016379;28;20045;-89
2021/07/23 08:58:41;;;;;;;12.40;8.90;;;27.70;70.90;;;;;;5030725;28;20040;-89
2021/07/23 09:01:07;;;;;;;11.15;8.18;;;27.50;70.30;;;;;;5012990;28;20480;-89
2021/07/23 09:03:34;;;;;;;11.75;8.00;;;27.40;76.60;;;;;;5028022;28;20075;-93
2021/07/23 09:06:17;;;;;;;13.38;8.32;;;27.40;76.40;;;;;;5029678;28;20026;-90
2021/07/23 09:08:47;;;;;;;12.20;8.95;;;26.90;72.30;;;;;;5012872;28;20112;-90
2021/07/23 09:11:13;;;;;;;9.05;6.53;;;26.80;73.90;;;;;;5028548;28;20041;-89
2021/07/23 09:13:39;;;;;;;9.95;7.80;;;26.80;77.80;;;;;;5027911;28;20123;-88
2021/07/23 09:16:23;;;;;;;10.35;7.53;;;26.70;73.40;;;;;;4996118;28;20038;-93
2021/07/23 09:19:07;;;;;;;10.38;8.02;;;26.40;77.10;;;;;;5013131;28;20083;-93
2021/07/23 09:21:39;;;;;;;12.15;7.70;;;25.80;74.40;;;;;;5012285;28;20033;-90
2021/07/23 09:24:10;;;;;;;8.25;6.43;;;25.50;75.80;;;;;;5009916;28;20112;-91
2021/07/23 09:26:46;;;;;;;8.63;6.18;;;25.30;75.70;;;;;;5027377;28;20112;-88
2021/07/23 09:29:13;;;;;;;12.88;7.80;;;25.20;80.50;;;;;;5010055;28;20029;-87
2021/07/23 09:31:40;;;;;;;8.77;6.50;;;25.20;74.90;;;;;;4991340;28;20030;-88
2021/07/23 09:34:07;;;;;;;9.73;7.20;;;25.10;78.00;;;;;;5020967;28;20137;-89
2021/07/23 09:36:33;;;;;;;10.27;7.05;;;25.00;77.20;;;;;;5008495;28;20037;-87
2021/07/23 09:39:05;;;;;;;8.15;6.43;;;25.00;75.80;;;;;;5007597;28;20025;-87
2021/07/23 09:41:31;;;;;;;9.32;6.05;;;25.00;80.60;;;;;;5010102;28;20120;-90
2021/07/23 09:44:07;;;;;;;14.75;6.85;;;25.00;78.90;;;;;;5011370;28;20026;-88
2021/07/23 09:46:43;;;;;;;10.40;7.43;;;25.10;82.30;;;;;;5028710;28;20032;-87
2021/07/23 09:49:20;;;;;;;11.43;6.82;;;25.00;75.20;;;;;;5012314;28;20033;-87
2021/07/23 09:51:47;;;;;;;11.73;7.55;;;24.80;79.00;;;;;;5009172;28;20025;-87
2021/07/23 09:54:13;;;;;;;10.20;7.35;;;24.70;80.40;;;;;;5004584;28;20028;-88
2021/07/23 09:56:39;;;;;;;10.10;7.15;;;24.80;80.10;;;;;;5016367;28;20057;-88
2021/07/23 09:59:16;;;;;;;9.13;6.75;;;24.80;75.30;;;;;;5007784;28;20026;-88
2021/07/23 10:01:44;;;;;;;9.07;7.13;;;24.80;77.20;;;;;;5019602;28;20164;-87
2021/07/23 10:04:20;;;;;;;8.32;6.68;;;24.80;82.00;;;;;;5018739;28;20028;-88
2021/07/23 10:06:57;;;;;;;10.55;7.18;;;24.90;85.10;;;;;;5034184;28;20037;-93
2021/07/23 10:09:27;;;;;;;11.60;7.25;;;24.90;75.10;;;;;;5031896;28;20034;-89
2021/07/23 10:11:58;;;;;;;9.43;6.95;;;24.90;75.90;;;;;;5019842;28;20246;-88
2021/07/23 10:14:27;;;;;;;9.02;7.22;;;24.70;74.60;;;;;;5010528;28;20029;-87
2021/07/23 10:16:54;;;;;;;9.60;6.90;;;24.30;74.30;;;;;;5010488;28;20033;-90
2021/07/23 10:19:23;;;;;;;9.88;6.70;;;24.10;75.10;;;;;;5010830;28;20026;-89
2021/07/23 10:21:58;;;;;;;9.10;6.63;;;24.00;75.40;;;;;;5004617;28;20032;-88
2021/07/23 10:24:31;;;;;;;10.52;7.68;;;24.00;75.00;;;;;;5002742;28;20511;-88
2021/07/23 10:26:58;;;;;;;10.82;7.03;;;24.00;77.50;;;;;;5026988;28;20021;-88
2021/07/23 10:29:51;;;;;;;10.20;7.07;;;24.20;81.40;;;;;;5040713;28;20025;-91
2021/07/23 10:32:37;;;;;;;8.45;6.55;;;24.30;79.00;;;;;;5003640;28;20034;-87
2021/07/23 10:35:15;;;;;;;10.80;8.23;;;24.40;81.10;;;;;;4991511;28;20540;-86
2021/07/23 10:37:55;;;;;;;9.80;7.43;;;24.60;80.30;;;;;;5026666;28;20672;-87
2021/07/23 10:40:29;;;;;;;8.77;5.93;;;24.80;79.70;;;;;;4989152;28;20038;-88
2021/07/23 10:42:55;;;;;;;9.57;7.05;;;24.90;75.10;;;;;;5009513;28;20112;-87
2021/07/23 10:45:21;;;;;;;11.90;7.40;;;25.00;74.50;;;;;;5008916;28;20579;-88
2021/07/23 10:47:49;;;;;;;10.65;7.15;;;25.00;76.00;;;;;;5009529;28;20072;-88
2021/07/23 10:50:27;;;;;;;10.52;7.07;;;25.00;75.60;;;;;;5009351;28;20076;-88
2021/07/23 10:52:53;;;;;;;11.77;6.70;;;25.00;77.20;;;;;;5025853;28;20025;-86
2021/07/23 10:55:24;;;;;;;10.32;6.45;;;25.20;84.60;;;;;;5009227;28;20048;-86
2021/07/23 10:58:05;;;;;;;8.52;6.70;;;25.50;87.80;;;;;;5007101;28;20117;-87
2021/07/23 11:01:03;;;;;;;9.93;6.88;;;25.80;85.90;;;;;;5008287;28;20029;-88
2021/07/23 11:03:35;;;;;;;10.25;7.03;;;26.10;81.20;;;;;;4978089;28;20578;-87
2021/07/23 11:06:02;;;;;;;10.00;6.95;;;26.10;71.30;;;;;;5004848;28;20108;-86
2021/07/23 11:08:28;;;;;;;10.20;6.82;;;26.10;76.80;;;;;;5002137;28;20022;-86
2021/07/23 11:10:54;;;;;;;9.13;6.50;;;26.20;77.70;;;;;;5022802;28;20037;-88
2021/07/23 11:13:22;;;;;;;10.80;8.02;;;26.20;72.80;;;;;;5005045;28;20042;-86
2021/07/23 11:15:48;;;;;;;11.40;6.45;;;26.30;76.40;;;;;;5014990;28;20030;-85
2021/07/23 11:18:15;;;;;;;9.02;6.28;;;26.40;70.80;;;;;;5008402;28;20044;-86
2021/07/23 11:20:41;;;;;;;8.95;7.03;;;26.40;73.10;;;;;;5023696;28;20040;-83
2021/07/23 11:23:10;;;;;;;10.18;7.63;;;26.40;76.90;;;;;;5026480;28;20527;-86
2021/07/23 11:25:37;;;;;;;8.27;6.40;;;26.60;81.10;;;;;;4995233;28;20030;-87
2021/07/23 11:28:06;;;;;;;10.98;7.00;;;26.70;80.90;;;;;;5033163;28;20040;-85
2021/07/23 11:30:34;;;;;;;8.50;6.20;;;26.90;73.10;;;;;;5008559;28;20160;-85
2021/07/23 11:33:05;;;;;;;9.80;6.47;;;27.00;75.00;;;;;;5031468;28;20037;-86
2021/07/23 11:35:33;;;;;;;10.50;7.03;;;27.10;79.80;;;;;;5031690;28;20116;-85
2021/07/23 11:38:09;;;;;;;11.35;6.70;;;27.20;78.00;;;;;;5025522;28;20060;-84
2021/07/23 11:40:34;;;;;;;9.20;6.63;;;27.30;77.90;;;;;;5014508;28;20034;-86
2021/07/23 11:43:01;;;;;;;10.05;6.57;;;27.30;73.50;;;;;;5002732;28;20026;-87
2021/07/23 11:45:35;;;;;;;9.70;6.68;;;27.40;71.10;;;;;;5024985;28;20049;-87
2021/07/23 11:48:16;;;;;;;8.93;6.40;;;27.30;74.70;;;;;;5007800;28;20021;-87
2021/07/23 11:50:56;;;;;;;9.27;6.80;;;27.30;78.20;;;;;;5002040;28;20048;-87
2021/07/23 11:53:49;;;;;;;8.50;6.75;;;27.30;75.40;;;;;;5018243;28;20037;-87
2021/07/23 11:56:32;;;;;;;8.40;6.50;;;27.40;74.10;;;;;;4985690;28;20094;-86
2021/07/23 11:58:59;;;;;;;9.27;6.80;;;27.40;74.80;;;;;;5003805;28;20117;-86
2021/07/23 12:01:28;;;;;;;7.72;5.75;;;27.50;75.30;;;;;;5036606;28;20032;-87
2021/07/23 12:04:03;;;;;;;8.05;6.32;;;27.60;72.70;;;;;;5018344;28;20679;-87
2021/07/23 12:06:29;;;;;;;9.43;6.47;;;27.80;76.80;;;;;;5024146;28;20029;-87
2021/07/23 12:09:01;;;;;;;8.68;6.47;;;28.00;73.50;;;;;;5004403;28;20645;-87
2021/07/23 12:11:30;;;;;;;8.48;6.65;;;28.30;77.20;;;;;;5022696;28;20034;-87
2021/07/23 12:14:06;;;;;;;9.95;6.80;;;28.40;74.40;;;;;;5023866;28;20523;-88
2021/07/23 12:16:32;;;;;;;9.25;6.25;;;28.70;72.20;;;;;;5007274;28;20030;-87
2021/07/23 12:19:17;;;;;;;10.13;7.20;;;29.10;66.70;;;;;;5021005;28;20036;-88
2021/07/23 12:22:11;;;;;;;7.80;6.00;;;29.30;60.80;;;;;;5017315;28;20523;-87
2021/07/23 12:24:37;;;;;;;9.00;6.90;;;29.40;62.10;;;;;;5007258;28;20083;-85
2021/07/23 12:27:23;;;;;;;8.93;6.75;;;29.50;65.90;;;;;;5022483;28;20025;-85
2021/07/23 12:29:52;;;;;;;9.07;6.70;;;29.50;68.30;;;;;;5018726;28;20121;-85
2021/07/23 12:32:25;;;;;;;10.13;6.22;;;29.50;61.10;;;;;;5027133;28;20056;-85
2021/07/23 12:34:58;;;;;;;7.43;5.88;;;29.70;66.50;;;;;;5021337;28;20100;-87
2021/07/23 12:37:25;;;;;;;9.27;6.70;;;29.90;61.90;;;;;;5024154;28;20034;-90
2021/07/23 12:39:56;;;;;;;8.70;6.45;;;29.70;54.40;;;;;;5003699;28;20064;-85
2021/07/23 12:42:23;;;;;;;10.32;6.93;;;29.80;60.60;;;;;;5019980;28;20476;-87
2021/07/23 12:44:50;;;;;;;6.60;5.50;;;29.70;63.00;;;;;;5008236;28;20040;-88
2021/07/23 12:47:17;;;;;;;9.13;6.47;;;29.70;58.60;;;;;;5007310;28;20030;-88